sensor_id;sensor_type;location;lat;lon;timestamp;temperature;humidity
47576;DHT22;33304;52.456;13.328;2023-06-22T00:01:18;21.40;31.90
47576;DHT22;33304;52.456;13.328;2023-06-22T00:03:45;21.40;31.90
47576;DHT22;33304;52.456;13.328;2023-06-22T00:06:12;21.30;32.60
47576;DHT22;33304;52.456;13.328;2023-06-22T00:08:40;21.30;32.10
47576;DHT22;33304;52.456;13.328;2023-06-22T00:11:07;21.30;32.80
47576;DHT22;33304;52.456;13.328;2023-06-22T00:13:35;21.30;33.30
47576;DHT22;33304;52.456;13.328;2023-06-22T00:16:03;21.20;32.80
47576;DHT22;33304;52.456;13.328;2023-06-22T00:18:30;21.30;32.40
47576;DHT22;33304;52.456;13.328;2023-06-22T00:20:58;21.30;32.10
47576;DHT22;33304;52.456;13.328;2023-06-22T00:23:26;21.20;32.60
47576;DHT22;33304;52.456;13.328;2023-06-22T00:25:53;21.20;33.30
47576;DHT22;33304;52.456;13.328;2023-06-22T00:28:20;21.20;32.80
47576;DHT22;33304;52.456;13.328;2023-06-22T00:30:49;21.20;33.50
47576;DHT22;33304;52.456;13.328;2023-06-22T00:33:18;21.10;33.10
47576;DHT22;33304;52.456;13.328;2023-06-22T00:35:45;21.10;33.00
47576;DHT22;33304;52.456;13.328;2023-06-22T00:38:12;21.10;33.50
47576;DHT22;33304;52.456;13.328;2023-06-22T00:40:41;21.10;33.70
47576;DHT22;33304;52.456;13.328;2023-06-22T00:43:08;21.10;33.50
47576;DHT22;33304;52.456;13.328;2023-06-22T00:45:36;21.00;33.90
47576;DHT22;33304;52.456;13.328;2023-06-22T00:48:05;21.00;33.90
47576;DHT22;33304;52.456;13.328;2023-06-22T00:50:33;21.00;34.20
47576;DHT22;33304;52.456;13.328;2023-06-22T00:53:03;21.00;34.00
47576;DHT22;33304;52.456;13.328;2023-06-22T00:55:35;21.00;34.40
47576;DHT22;33304;52.456;13.328;2023-06-22T00:58:05;20.90;34.60
47576;DHT22;33304;52.456;13.328;2023-06-22T01:00:36;20.90;33.70
47576;DHT22;33304;52.456;13.328;2023-06-22T01:03:05;20.90;34.40
47576;DHT22;33304;52.456;13.328;2023-06-22T01:05:35;20.90;35.50
47576;DHT22;33304;52.456;13.328;2023-06-22T01:08:08;20.90;34.90
47576;DHT22;33304;52.456;13.328;2023-06-22T01:10:43;20.80;36.10
47576;DHT22;33304;52.456;13.328;2023-06-22T01:13:27;20.80;35.80
47576;DHT22;33304;52.456;13.328;2023-06-22T01:16:00;20.80;35.50
47576;DHT22;33304;52.456;13.328;2023-06-22T01:18:31;20.80;36.10
47576;DHT22;33304;52.456;13.328;2023-06-22T01:21:03;20.80;37.30
47576;DHT22;33304;52.456;13.328;2023-06-22T01:23:42;20.70;37.10
47576;DHT22;33304;52.456;13.328;2023-06-22T01:26:17;20.70;36.80
47576;DHT22;33304;52.456;13.328;2023-06-22T01:28:49;20.70;37.50
47576;DHT22;33304;52.456;13.328;2023-06-22T01:31:19;20.60;37.60
47576;DHT22;33304;52.456;13.328;2023-06-22T01:33:50;20.60;37.70
47576;DHT22;33304;52.456;13.328;2023-06-22T01:36:18;20.80;36.80
47576;DHT22;33304;52.456;13.328;2023-06-22T01:38:47;20.80;37.70
47576;DHT22;33304;52.456;13.328;2023-06-22T01:41:15;20.80;37.60
47576;DHT22;33304;52.456;13.328;2023-06-22T01:43:43;20.80;37.10
47576;DHT22;33304;52.456;13.328;2023-06-22T01:46:13;20.80;37.30
47576;DHT22;33304;52.456;13.328;2023-06-22T01:48:41;20.80;37.00
47576;DHT22;33304;52.456;13.328;2023-06-22T01:51:08;20.80;37.70
47576;DHT22;33304;52.456;13.328;2023-06-22T01:53:35;20.70;38.30
47576;DHT22;33304;52.456;13.328;2023-06-22T01:56:03;20.70;39.20
47576;DHT22;33304;52.456;13.328;2023-06-22T01:58:31;20.70;39.30
47576;DHT22;33304;52.456;13.328;2023-06-22T02:01:08;20.70;39.20
47576;DHT22;33304;52.456;13.328;2023-06-22T02:03:42;20.70;39.90
47576;DHT22;33304;52.456;13.328;2023-06-22T02:06:16;20.80;39.30
47576;DHT22;33304;52.456;13.328;2023-06-22T02:08:49;20.90;39.30
47576;DHT22;33304;52.456;13.328;2023-06-22T02:11:18;20.80;39.30
47576;DHT22;33304;52.456;13.328;2023-06-22T02:13:47;20.80;39.70
47576;DHT22;33304;52.456;13.328;2023-06-22T02:16:14;20.90;39.30
47576;DHT22;33304;52.456;13.328;2023-06-22T02:18:47;20.80;39.80
47576;DHT22;33304;52.456;13.328;2023-06-22T02:21:16;20.80;39.30
47576;DHT22;33304;52.456;13.328;2023-06-22T02:23:44;20.80;39.80
47576;DHT22;33304;52.456;13.328;2023-06-22T02:26:11;20.70;39.60
47576;DHT22;33304;52.456;13.328;2023-06-22T02:28:38;20.70;41.30
47576;DHT22;33304;52.456;13.328;2023-06-22T02:31:06;20.60;41.20
47576;DHT22;33304;52.456;13.328;2023-06-22T02:33:33;20.60;41.20
47576;DHT22;33304;52.456;13.328;2023-06-22T02:36:01;20.60;41.20
47576;DHT22;33304;52.456;13.328;2023-06-22T02:38:31;20.60;41.20
47576;DHT22;33304;52.456;13.328;2023-06-22T02:41:00;20.60;42.10
47576;DHT22;33304;52.456;13.328;2023-06-22T02:43:27;20.50;42.20
47576;DHT22;33304;52.456;13.328;2023-06-22T02:45:55;20.60;41.80
47576;DHT22;33304;52.456;13.328;2023-06-22T02:48:22;20.60;41.30
47576;DHT22;33304;52.456;13.328;2023-06-22T02:50:50;20.70;41.90
47576;DHT22;33304;52.456;13.328;2023-06-22T02:53:18;20.70;41.40
47576;DHT22;33304;52.456;13.328;2023-06-22T02:55:47;20.80;41.40
47576;DHT22;33304;52.456;13.328;2023-06-22T02:58:14;20.80;41.40
47576;DHT22;33304;52.456;13.328;2023-06-22T03:00:41;20.80;41.40
47576;DHT22;33304;52.456;13.328;2023-06-22T03:03:08;20.80;41.60
47576;DHT22;33304;52.456;13.328;2023-06-22T03:05:36;20.90;41.50
47576;DHT22;33304;52.456;13.328;2023-06-22T03:08:03;20.90;41.50
47576;DHT22;33304;52.456;13.328;2023-06-22T03:10:34;20.90;41.50
47576;DHT22;33304;52.456;13.328;2023-06-22T03:13:01;20.90;41.50
47576;DHT22;33304;52.456;13.328;2023-06-22T03:15:30;20.90;41.50
47576;DHT22;33304;52.456;13.328;2023-06-22T03:17:57;20.90;43.00
47576;DHT22;33304;52.456;13.328;2023-06-22T03:20:25;20.80;42.70
47576;DHT22;33304;52.456;13.328;2023-06-22T03:22:53;20.80;43.10
47576;DHT22;33304;52.456;13.328;2023-06-22T03:25:20;20.80;42.70
47576;DHT22;33304;52.456;13.328;2023-06-22T03:27:50;20.80;43.50
47576;DHT22;33304;52.456;13.328;2023-06-22T03:30:17;20.70;44.20
47576;DHT22;33304;52.456;13.328;2023-06-22T03:32:45;20.70;44.80
47576;DHT22;33304;52.456;13.328;2023-06-22T03:35:13;20.70;45.40
47576;DHT22;33304;52.456;13.328;2023-06-22T03:37:40;20.70;45.30
47576;DHT22;33304;52.456;13.328;2023-06-22T03:40:08;20.70;44.80
47576;DHT22;33304;52.456;13.328;2023-06-22T03:42:36;20.80;44.80
47576;DHT22;33304;52.456;13.328;2023-06-22T03:45:05;20.80;44.20
47576;DHT22;33304;52.456;13.328;2023-06-22T03:47:33;20.80;44.80
47576;DHT22;33304;52.456;13.328;2023-06-22T03:50:00;20.80;44.20
47576;DHT22;33304;52.456;13.328;2023-06-22T03:52:29;20.80;44.00
47576;DHT22;33304;52.456;13.328;2023-06-22T03:54:56;20.90;43.70
47576;DHT22;33304;52.456;13.328;2023-06-22T03:57:23;20.90;42.80
47576;DHT22;33304;52.456;13.328;2023-06-22T03:59:51;20.80;42.50
47576;DHT22;33304;52.456;13.328;2023-06-22T04:02:19;20.70;42.60
47576;DHT22;33304;52.456;13.328;2023-06-22T04:04:46;20.70;42.50
47576;DHT22;33304;52.456;13.328;2023-06-22T04:07:13;20.70;42.60
47576;DHT22;33304;52.456;13.328;2023-06-22T04:09:40;20.70;42.70
47576;DHT22;33304;52.456;13.328;2023-06-22T04:12:08;20.70;42.30
47576;DHT22;33304;52.456;13.328;2023-06-22T04:14:35;20.80;41.50
47576;DHT22;33304;52.456;13.328;2023-06-22T04:17:02;20.90;41.50
47576;DHT22;33304;52.456;13.328;2023-06-22T04:19:31;20.80;41.40
47576;DHT22;33304;52.456;13.328;2023-06-22T04:21:58;20.80;41.40
47576;DHT22;33304;52.456;13.328;2023-06-22T04:24:25;20.80;41.40
47576;DHT22;33304;52.456;13.328;2023-06-22T04:26:52;20.80;41.40
47576;DHT22;33304;52.456;13.328;2023-06-22T04:29:21;20.80;41.30
47576;DHT22;33304;52.456;13.328;2023-06-22T04:31:56;20.80;40.60
47576;DHT22;33304;52.456;13.328;2023-06-22T04:34:24;20.90;39.20
47576;DHT22;33304;52.456;13.328;2023-06-22T04:36:54;20.90;38.90
47576;DHT22;33304;52.456;13.328;2023-06-22T04:39:21;20.90;38.50
47576;DHT22;33304;52.456;13.328;2023-06-22T04:41:49;20.90;37.00
47576;DHT22;33304;52.456;13.328;2023-06-22T04:44:18;20.80;37.30
47576;DHT22;33304;52.456;13.328;2023-06-22T04:46:50;20.90;37.10
47576;DHT22;33304;52.456;13.328;2023-06-22T04:49:20;20.90;37.90
47576;DHT22;33304;52.456;13.328;2023-06-22T04:51:48;20.80;38.80
47576;DHT22;33304;52.456;13.328;2023-06-22T04:54:19;20.80;38.90
47576;DHT22;33304;52.456;13.328;2023-06-22T04:56:46;20.90;38.40
47576;DHT22;33304;52.456;13.328;2023-06-22T04:59:15;21.00;38.00
47576;DHT22;33304;52.456;13.328;2023-06-22T05:01:44;21.00;37.20
47576;DHT22;33304;52.456;13.328;2023-06-22T05:04:11;21.10;35.40
47576;DHT22;33304;52.456;13.328;2023-06-22T05:06:38;21.20;34.10
47576;DHT22;33304;52.456;13.328;2023-06-22T05:09:05;21.20;34.60
47576;DHT22;33304;52.456;13.328;2023-06-22T05:11:34;21.20;34.50
47576;DHT22;33304;52.456;13.328;2023-06-22T05:14:01;21.30;34.40
47576;DHT22;33304;52.456;13.328;2023-06-22T05:16:28;21.30;33.10
47576;DHT22;33304;52.456;13.328;2023-06-22T05:18:56;21.30;33.20
47576;DHT22;33304;52.456;13.328;2023-06-22T05:21:25;21.40;32.50
47576;DHT22;33304;52.456;13.328;2023-06-22T05:23:52;21.30;32.60
47576;DHT22;33304;52.456;13.328;2023-06-22T05:26:21;21.40;31.80
47576;DHT22;33304;52.456;13.328;2023-06-22T05:28:50;21.50;31.00
47576;DHT22;33304;52.456;13.328;2023-06-22T05:31:17;21.50;30.60
47576;DHT22;33304;52.456;13.328;2023-06-22T05:33:46;21.60;30.10
47576;DHT22;33304;52.456;13.328;2023-06-22T05:36:14;21.60;30.10
47576;DHT22;33304;52.456;13.328;2023-06-22T05:38:41;21.80;29.10
47576;DHT22;33304;52.456;13.328;2023-06-22T05:41:08;21.80;29.10
47576;DHT22;33304;52.456;13.328;2023-06-22T05:43:35;21.70;29.50
47576;DHT22;33304;52.456;13.328;2023-06-22T05:46:04;21.80;29.10
47576;DHT22;33304;52.456;13.328;2023-06-22T05:48:31;21.80;28.80
47576;DHT22;33304;52.456;13.328;2023-06-22T05:50:58;21.90;28.90
47576;DHT22;33304;52.456;13.328;2023-06-22T05:53:25;22.00;28.40
47576;DHT22;33304;52.456;13.328;2023-06-22T05:55:53;22.10;27.00
47576;DHT22;33304;52.456;13.328;2023-06-22T05:58:20;22.20;26.70
47576;DHT22;33304;52.456;13.328;2023-06-22T06:00:47;22.30;26.30
47576;DHT22;33304;52.456;13.328;2023-06-22T06:03:16;22.30;26.00
47576;DHT22;33304;52.456;13.328;2023-06-22T06:05:44;22.30;26.30
47576;DHT22;33304;52.456;13.328;2023-06-22T06:08:11;22.20;27.40
47576;DHT22;33304;52.456;13.328;2023-06-22T06:10:38;22.30;26.40
47576;DHT22;33304;52.456;13.328;2023-06-22T06:13:06;22.40;26.50
47576;DHT22;33304;52.456;13.328;2023-06-22T06:15:34;22.30;26.40
47576;DHT22;33304;52.456;13.328;2023-06-22T06:18:01;22.40;26.60
47576;DHT22;33304;52.456;13.328;2023-06-22T06:20:32;22.40;25.80
47576;DHT22;33304;52.456;13.328;2023-06-22T06:22:59;22.50;26.20
47576;DHT22;33304;52.456;13.328;2023-06-22T06:25:26;22.60;25.90
47576;DHT22;33304;52.456;13.328;2023-06-22T06:27:53;22.50;25.20
47576;DHT22;33304;52.456;13.328;2023-06-22T06:30:21;22.60;25.00
47576;DHT22;33304;52.456;13.328;2023-06-22T06:32:49;22.70;24.40
47576;DHT22;33304;52.456;13.328;2023-06-22T06:35:17;22.90;24.10
47576;DHT22;33304;52.456;13.328;2023-06-22T06:37:47;23.10;23.50
47576;DHT22;33304;52.456;13.328;2023-06-22T06:40:15;23.30;22.60
47576;DHT22;33304;52.456;13.328;2023-06-22T06:42:44;23.40;20.70
47576;DHT22;33304;52.456;13.328;2023-06-22T06:45:11;23.50;18.80
47576;DHT22;33304;52.456;13.328;2023-06-22T06:47:39;23.60;18.50
47576;DHT22;33304;52.456;13.328;2023-06-22T06:50:07;23.50;18.90
47576;DHT22;33304;52.456;13.328;2023-06-22T06:52:34;23.60;18.60
47576;DHT22;33304;52.456;13.328;2023-06-22T06:55:04;23.80;17.70
47576;DHT22;33304;52.456;13.328;2023-06-22T06:57:34;24.10;16.50
47576;DHT22;33304;52.456;13.328;2023-06-22T07:00:03;24.40;15.40
47576;DHT22;33304;52.456;13.328;2023-06-22T07:02:38;24.70;15.60
47576;DHT22;33304;52.456;13.328;2023-06-22T07:05:06;24.70;15.30
47576;DHT22;33304;52.456;13.328;2023-06-22T07:07:34;24.60;13.50
47576;DHT22;33304;52.456;13.328;2023-06-22T07:10:03;24.60;13.80
47576;DHT22;33304;52.456;13.328;2023-06-22T07:12:30;24.70;13.40
47576;DHT22;33304;52.456;13.328;2023-06-22T07:15:02;24.80;12.60
47576;DHT22;33304;52.456;13.328;2023-06-22T07:17:29;24.80;12.00
47576;DHT22;33304;52.456;13.328;2023-06-22T07:19:56;24.90;12.80
47576;DHT22;33304;52.456;13.328;2023-06-22T07:22:23;24.90;11.30
47576;DHT22;33304;52.456;13.328;2023-06-22T07:24:50;25.10;12.50
47576;DHT22;33304;52.456;13.328;2023-06-22T07:27:19;25.20;12.50
47576;DHT22;33304;52.456;13.328;2023-06-22T07:29:47;25.20;12.10
47576;DHT22;33304;52.456;13.328;2023-06-22T07:32:14;25.30;11.70
47576;DHT22;33304;52.456;13.328;2023-06-22T07:34:41;25.30;11.10
47576;DHT22;33304;52.456;13.328;2023-06-22T07:37:08;25.30;11.50
47576;DHT22;33304;52.456;13.328;2023-06-22T07:39:36;25.30;13.60
47576;DHT22;33304;52.456;13.328;2023-06-22T07:42:04;25.30;11.30
47576;DHT22;33304;52.456;13.328;2023-06-22T07:44:32;25.30;13.00
47576;DHT22;33304;52.456;13.328;2023-06-22T07:46:59;25.30;11.30
47576;DHT22;33304;52.456;13.328;2023-06-22T07:49:27;25.60;9.60
47576;DHT22;33304;52.456;13.328;2023-06-22T07:51:55;25.80;10.80
47576;DHT22;33304;52.456;13.328;2023-06-22T07:54:22;25.70;11.10
47576;DHT22;33304;52.456;13.328;2023-06-22T07:56:49;25.70;9.60
47576;DHT22;33304;52.456;13.328;2023-06-22T07:59:16;25.70;10.40
47576;DHT22;33304;52.456;13.328;2023-06-22T08:01:44;25.60;10.00
47576;DHT22;33304;52.456;13.328;2023-06-22T08:04:11;25.70;9.60
47576;DHT22;33304;52.456;13.328;2023-06-22T08:06:38;25.40;9.30
47576;DHT22;33304;52.456;13.328;2023-06-22T08:09:05;25.60;10.00
47576;DHT22;33304;52.456;13.328;2023-06-22T08:11:32;25.60;10.40
47576;DHT22;33304;52.456;13.328;2023-06-22T08:14:00;25.70;9.60
47576;DHT22;33304;52.456;13.328;2023-06-22T08:16:27;25.70;9.00
47576;DHT22;33304;52.456;13.328;2023-06-22T08:18:55;25.70;8.10
47576;DHT22;33304;52.456;13.328;2023-06-22T08:21:23;25.60;7.50
47576;DHT22;33304;52.456;13.328;2023-06-22T08:23:50;25.80;7.40
47576;DHT22;33304;52.456;13.328;2023-06-22T08:26:17;25.70;6.50
47576;DHT22;33304;52.456;13.328;2023-06-22T08:28:44;25.60;5.30
47576;DHT22;33304;52.456;13.328;2023-06-22T08:31:11;25.60;4.90
47576;DHT22;33304;52.456;13.328;2023-06-22T08:33:40;25.60;5.60
47576;DHT22;33304;52.456;13.328;2023-06-22T08:36:10;25.60;6.30
47576;DHT22;33304;52.456;13.328;2023-06-22T08:38:39;25.70;5.00
47576;DHT22;33304;52.456;13.328;2023-06-22T08:41:06;25.60;4.20
47576;DHT22;33304;52.456;13.328;2023-06-22T08:43:33;25.70;3.60
47576;DHT22;33304;52.456;13.328;2023-06-22T08:46:01;25.70;4.10
47576;DHT22;33304;52.456;13.328;2023-06-22T08:48:29;25.80;2.80
47576;DHT22;33304;52.456;13.328;2023-06-22T08:50:56;26.00;2.90
47576;DHT22;33304;52.456;13.328;2023-06-22T08:53:24;26.10;3.00
47576;DHT22;33304;52.456;13.328;2023-06-22T08:55:51;26.00;3.00
47576;DHT22;33304;52.456;13.328;2023-06-22T08:58:18;26.10;3.00
47576;DHT22;33304;52.456;13.328;2023-06-22T09:00:47;26.20;3.00
47576;DHT22;33304;52.456;13.328;2023-06-22T09:03:14;26.30;3.10
47576;DHT22;33304;52.456;13.328;2023-06-22T09:05:41;26.40;3.20
47576;DHT22;33304;52.456;13.328;2023-06-22T09:08:08;26.30;3.10
47576;DHT22;33304;52.456;13.328;2023-06-22T09:10:37;26.10;3.00
47576;DHT22;33304;52.456;13.328;2023-06-22T09:13:04;26.10;3.00
47576;DHT22;33304;52.456;13.328;2023-06-22T09:15:31;26.40;3.20
47576;DHT22;33304;52.456;13.328;2023-06-22T09:17:58;26.30;3.10
47576;DHT22;33304;52.456;13.328;2023-06-22T09:20:25;26.40;1.80
47576;DHT22;33304;52.456;13.328;2023-06-22T09:22:52;26.50;3.20
47576;DHT22;33304;52.456;13.328;2023-06-22T09:25:19;26.60;3.20
47576;DHT22;33304;52.456;13.328;2023-06-22T09:27:48;26.60;3.30
47576;DHT22;33304;52.456;13.328;2023-06-22T09:30:15;26.70;3.30
47576;DHT22;33304;52.456;13.328;2023-06-22T09:32:42;26.70;3.30
47576;DHT22;33304;52.456;13.328;2023-06-22T09:35:10;26.70;3.30
47576;DHT22;33304;52.456;13.328;2023-06-22T09:37:39;26.70;3.30
47576;DHT22;33304;52.456;13.328;2023-06-22T09:40:07;26.60;3.20
47576;DHT22;33304;52.456;13.328;2023-06-22T09:42:37;26.70;2.50
47576;DHT22;33304;52.456;13.328;2023-06-22T09:45:06;26.90;3.40
47576;DHT22;33304;52.456;13.328;2023-06-22T09:47:33;26.90;3.50
47576;DHT22;33304;52.456;13.328;2023-06-22T09:50:01;26.60;3.20
47576;DHT22;33304;52.456;13.328;2023-06-22T09:52:28;26.70;4.90
47576;DHT22;33304;52.456;13.328;2023-06-22T09:54:55;26.60;4.00
47576;DHT22;33304;52.456;13.328;2023-06-22T09:57:22;26.50;4.10
47576;DHT22;33304;52.456;13.328;2023-06-22T09:59:49;26.60;4.50
47576;DHT22;33304;52.456;13.328;2023-06-22T10:02:17;26.60;4.40
47576;DHT22;33304;52.456;13.328;2023-06-22T10:04:44;26.50;5.30
47576;DHT22;33304;52.456;13.328;2023-06-22T10:07:11;26.30;4.90
47576;DHT22;33304;52.456;13.328;2023-06-22T10:09:39;26.10;5.20
47576;DHT22;33304;52.456;13.328;2023-06-22T10:12:07;26.50;5.90
47576;DHT22;33304;52.456;13.328;2023-06-22T10:14:34;26.90;4.90
47576;DHT22;33304;52.456;13.328;2023-06-22T10:17:02;27.10;4.00
47576;DHT22;33304;52.456;13.328;2023-06-22T10:19:30;27.30;4.40
47576;DHT22;33304;52.456;13.328;2023-06-22T10:21:58;27.40;3.70
47576;DHT22;33304;52.456;13.328;2023-06-22T10:24:25;27.50;3.70
47576;DHT22;33304;52.456;13.328;2023-06-22T10:26:52;27.70;2.50
47576;DHT22;33304;52.456;13.328;2023-06-22T10:29:20;27.70;3.50
47576;DHT22;33304;52.456;13.328;2023-06-22T10:31:47;27.40;3.70
47576;DHT22;33304;52.456;13.328;2023-06-22T10:34:14;27.10;3.50
47576;DHT22;33304;52.456;13.328;2023-06-22T10:36:42;27.10;3.50
47576;DHT22;33304;52.456;13.328;2023-06-22T10:39:12;27.40;3.60
47576;DHT22;33304;52.456;13.328;2023-06-22T10:41:39;27.70;2.40
47576;DHT22;33304;52.456;13.328;2023-06-22T10:44:06;27.70;1.70
47576;DHT22;33304;52.456;13.328;2023-06-22T10:46:33;27.70;1.50
47576;DHT22;33304;52.456;13.328;2023-06-22T10:49:00;27.90;1.80
47576;DHT22;33304;52.456;13.328;2023-06-22T10:51:27;28.00;1.00
47576;DHT22;33304;52.456;13.328;2023-06-22T10:53:56;28.20;1.80
47576;DHT22;33304;52.456;13.328;2023-06-22T10:56:23;28.30;1.00
47576;DHT22;33304;52.456;13.328;2023-06-22T10:58:50;28.40;1.00
47576;DHT22;33304;52.456;13.328;2023-06-22T11:01:17;28.40;1.00
47576;DHT22;33304;52.456;13.328;2023-06-22T11:03:44;28.40;1.00
47576;DHT22;33304;52.456;13.328;2023-06-22T11:06:11;28.40;1.00
47576;DHT22;33304;52.456;13.328;2023-06-22T11:08:40;28.40;1.00
47576;DHT22;33304;52.456;13.328;2023-06-22T11:11:11;28.40;1.00
47576;DHT22;33304;52.456;13.328;2023-06-22T11:13:38;28.60;1.00
47576;DHT22;33304;52.456;13.328;2023-06-22T11:16:05;28.80;1.00
47576;DHT22;33304;52.456;13.328;2023-06-22T11:18:32;28.80;1.00
47576;DHT22;33304;52.456;13.328;2023-06-22T11:21:00;28.80;1.00
47576;DHT22;33304;52.456;13.328;2023-06-22T11:23:27;28.70;1.00
47576;DHT22;33304;52.456;13.328;2023-06-22T11:25:54;28.70;1.00
47576;DHT22;33304;52.456;13.328;2023-06-22T11:28:23;28.80;1.00
47576;DHT22;33304;52.456;13.328;2023-06-22T11:30:50;28.70;1.00
47576;DHT22;33304;52.456;13.328;2023-06-22T11:33:17;28.60;1.00
47576;DHT22;33304;52.456;13.328;2023-06-22T11:35:44;28.70;1.00
47576;DHT22;33304;52.456;13.328;2023-06-22T11:38:11;28.90;1.00
47576;DHT22;33304;52.456;13.328;2023-06-22T11:40:38;28.80;1.00
47576;DHT22;33304;52.456;13.328;2023-06-22T11:43:05;28.80;1.00
47576;DHT22;33304;52.456;13.328;2023-06-22T11:45:34;28.90;1.00
47576;DHT22;33304;52.456;13.328;2023-06-22T11:48:01;29.00;1.00
47576;DHT22;33304;52.456;13.328;2023-06-22T11:50:28;29.40;1.00
47576;DHT22;33304;52.456;13.328;2023-06-22T11:52:56;29.60;1.00
47576;DHT22;33304;52.456;13.328;2023-06-22T11:55:23;29.60;1.00
47576;DHT22;33304;52.456;13.328;2023-06-22T11:57:54;29.80;1.00
47576;DHT22;33304;52.456;13.328;2023-06-22T12:00:22;30.10;1.00
47576;DHT22;33304;52.456;13.328;2023-06-22T12:02:51;29.90;1.00
47576;DHT22;33304;52.456;13.328;2023-06-22T12:05:19;30.00;1.00
47576;DHT22;33304;52.456;13.328;2023-06-22T12:07:47;30.10;1.00
47576;DHT22;33304;52.456;13.328;2023-06-22T12:10:14;30.00;1.00
47576;DHT22;33304;52.456;13.328;2023-06-22T12:12:41;30.10;1.00
47576;DHT22;33304;52.456;13.328;2023-06-22T12:15:09;30.40;1.00
47576;DHT22;33304;52.456;13.328;2023-06-22T12:17:37;30.50;1.00
47576;DHT22;33304;52.456;13.328;2023-06-22T12:20:07;30.60;1.00
47576;DHT22;33304;52.456;13.328;2023-06-22T12:22:35;30.50;1.00
47576;DHT22;33304;52.456;13.328;2023-06-22T12:25:04;30.30;1.00
47576;DHT22;33304;52.456;13.328;2023-06-22T12:27:31;30.40;1.00
47576;DHT22;33304;52.456;13.328;2023-06-22T12:29:58;30.50;1.00
47576;DHT22;33304;52.456;13.328;2023-06-22T12:32:25;30.60;1.00
47576;DHT22;33304;52.456;13.328;2023-06-22T12:34:52;31.10;1.00
47576;DHT22;33304;52.456;13.328;2023-06-22T12:37:21;31.50;1.00
47576;DHT22;33304;52.456;13.328;2023-06-22T12:39:48;31.40;1.00
47576;DHT22;33304;52.456;13.328;2023-06-22T12:42:15;31.50;1.00
47576;DHT22;33304;52.456;13.328;2023-06-22T12:44:43;31.60;1.00
47576;DHT22;33304;52.456;13.328;2023-06-22T12:47:10;31.90;1.00
47576;DHT22;33304;52.456;13.328;2023-06-22T12:49:37;32.00;1.00
47576;DHT22;33304;52.456;13.328;2023-06-22T12:52:09;31.80;1.00
47576;DHT22;33304;52.456;13.328;2023-06-22T12:54:38;32.00;1.00
47576;DHT22;33304;52.456;13.328;2023-06-22T12:57:05;32.10;1.00
47576;DHT22;33304;52.456;13.328;2023-06-22T12:59:33;32.10;1.00
47576;DHT22;33304;52.456;13.328;2023-06-22T13:02:00;31.70;1.00
47576;DHT22;33304;52.456;13.328;2023-06-22T13:04:27;32.00;1.00
47576;DHT22;33304;52.456;13.328;2023-06-22T13:06:54;32.80;1.00
47576;DHT22;33304;52.456;13.328;2023-06-22T13:09:21;33.10;1.00
47576;DHT22;33304;52.456;13.328;2023-06-22T13:11:49;34.10;1.00
47576;DHT22;33304;52.456;13.328;2023-06-22T13:14:18;35.10;1.00
47576;DHT22;33304;52.456;13.328;2023-06-22T13:16:45;35.10;1.00
47576;DHT22;33304;52.456;13.328;2023-06-22T13:19:12;35.20;1.00
47576;DHT22;33304;52.456;13.328;2023-06-22T13:21:39;35.30;1.00
47576;DHT22;33304;52.456;13.328;2023-06-22T13:24:07;35.70;1.00
47576;DHT22;33304;52.456;13.328;2023-06-22T13:26:34;36.00;1.00
47576;DHT22;33304;52.456;13.328;2023-06-22T13:29:02;35.60;1.00
47576;DHT22;33304;52.456;13.328;2023-06-22T13:31:29;35.50;1.00
47576;DHT22;33304;52.456;13.328;2023-06-22T13:33:56;35.50;1.00
47576;DHT22;33304;52.456;13.328;2023-06-22T13:36:23;35.50;1.00
47576;DHT22;33304;52.456;13.328;2023-06-22T13:38:51;35.60;1.00
47576;DHT22;33304;52.456;13.328;2023-06-22T13:41:18;36.10;1.00
47576;DHT22;33304;52.456;13.328;2023-06-22T13:43:45;36.10;1.00
47576;DHT22;33304;52.456;13.328;2023-06-22T13:46:13;36.10;1.00
47576;DHT22;33304;52.456;13.328;2023-06-22T13:48:40;36.70;1.00
47576;DHT22;33304;52.456;13.328;2023-06-22T13:51:07;37.20;1.00
47576;DHT22;33304;52.456;13.328;2023-06-22T13:53:34;37.60;1.00
47576;DHT22;33304;52.456;13.328;2023-06-22T13:56:01;37.30;1.00
47576;DHT22;33304;52.456;13.328;2023-06-22T13:58:29;36.80;1.00
47576;DHT22;33304;52.456;13.328;2023-06-22T14:00:56;36.90;1.00
47576;DHT22;33304;52.456;13.328;2023-06-22T14:03:24;36.30;1.00
47576;DHT22;33304;52.456;13.328;2023-06-22T14:05:51;36.60;1.00
47576;DHT22;33304;52.456;13.328;2023-06-22T14:08:22;36.70;1.00
47576;DHT22;33304;52.456;13.328;2023-06-22T14:10:50;37.20;1.00
47576;DHT22;33304;52.456;13.328;2023-06-22T14:13:19;36.80;1.00
47576;DHT22;33304;52.456;13.328;2023-06-22T14:15:46;36.60;1.00
47576;DHT22;33304;52.456;13.328;2023-06-22T14:18:15;36.70;1.00
47576;DHT22;33304;52.456;13.328;2023-06-22T14:20:43;37.10;1.00
47576;DHT22;33304;52.456;13.328;2023-06-22T14:23:10;36.30;1.00
47576;DHT22;33304;52.456;13.328;2023-06-22T14:25:37;35.60;1.00
47576;DHT22;33304;52.456;13.328;2023-06-22T14:28:05;35.80;1.00
47576;DHT22;33304;52.456;13.328;2023-06-22T14:30:32;35.80;1.00
47576;DHT22;33304;52.456;13.328;2023-06-22T14:33:00;36.20;1.00
47576;DHT22;33304;52.456;13.328;2023-06-22T14:35:27;36.50;1.00
47576;DHT22;33304;52.456;13.328;2023-06-22T14:37:55;36.50;1.00
47576;DHT22;33304;52.456;13.328;2023-06-22T14:40:22;36.40;1.00
47576;DHT22;33304;52.456;13.328;2023-06-22T14:42:49;36.70;1.00
47576;DHT22;33304;52.456;13.328;2023-06-22T14:45:16;37.10;1.00
47576;DHT22;33304;52.456;13.328;2023-06-22T14:47:43;37.60;1.00
47576;DHT22;33304;52.456;13.328;2023-06-22T14:50:10;37.40;1.00
47576;DHT22;33304;52.456;13.328;2023-06-22T14:52:37;37.00;1.00
47576;DHT22;33304;52.456;13.328;2023-06-22T14:55:07;36.50;1.00
47576;DHT22;33304;52.456;13.328;2023-06-22T14:57:34;36.50;1.00
47576;DHT22;33304;52.456;13.328;2023-06-22T15:00:01;36.20;1.00
47576;DHT22;33304;52.456;13.328;2023-06-22T15:02:29;35.70;1.00
47576;DHT22;33304;52.456;13.328;2023-06-22T15:04:56;35.20;1.00
47576;DHT22;33304;52.456;13.328;2023-06-22T15:07:23;34.90;1.00
47576;DHT22;33304;52.456;13.328;2023-06-22T15:09:50;35.30;1.00
47576;DHT22;33304;52.456;13.328;2023-06-22T15:12:19;35.50;1.00
47576;DHT22;33304;52.456;13.328;2023-06-22T15:14:46;35.30;1.00
47576;DHT22;33304;52.456;13.328;2023-06-22T15:17:13;35.20;1.00
47576;DHT22;33304;52.456;13.328;2023-06-22T15:19:41;35.40;1.00
47576;DHT22;33304;52.456;13.328;2023-06-22T15:22:08;35.50;1.00
47576;DHT22;33304;52.456;13.328;2023-06-22T15:24:35;35.40;1.00
47576;DHT22;33304;52.456;13.328;2023-06-22T15:27:02;35.60;1.00